Overview Statistics Trail Chart Weather Telemetry Raw packets
 

This is the latest recevied weather packets stored in our database for station/object K6CED. If no packets are shown the sender has not sent any weather packets the latest 10 day(s).

<< 96 97 98 99 100 101 102 >>
Time Temp. Humidity Pressure Rain* Wind** Luminosity Snow
1787946685 39.44° C 31% 1014.8 hPa 0 mm - 796 W/m² -
1787946379 38.89° C 30% 1014.6 hPa 0 mm - 807 W/m² -
1787946074 39.44° C 29% 1015 hPa 0 mm - 812 W/m² -
1787945769 39.44° C 27% 1014.8 hPa 0 mm - 820 W/m² -
1787945464 38.89° C 29% 1014.8 hPa 0 mm - 823 W/m² -
1787945159 38.89° C 31% 1015.1 hPa 0 mm - 821 W/m² -
1787944857 37.78° C 32% 1014.9 hPa 0 mm - 827 W/m² -
1787944552 38.33° C 31% 1015.2 hPa 0 mm - 828 W/m² -
1787944248 38.33° C 31% 1015.3 hPa 0 mm - 828 W/m² -
1787943947 38.33° C 32% 1015.4 hPa 0 mm - 826 W/m² -
1787943643 38.33° C 32% 1015.2 hPa 0 mm - 825 W/m² -
1787943342 38.33° C 33% 1015.5 hPa 0 mm - 823 W/m² -
1787943037 37.78° C 33% 1015.3 hPa 0 mm - 819 W/m² -
1787942732 37.22° C 34% 1015.4 hPa 0 mm - 816 W/m² -
1787942434 36.67° C 35% 1015.6 hPa 0 mm - 804 W/m² -
1787942127 37.78° C 31% 1015.7 hPa 0 mm - 806 W/m² -
1787941823 36.67° C 36% 1015.5 hPa 0 mm - 800 W/m² -
1787941521 36.67° C 37% 1015.4 hPa 0 mm - 794 W/m² -
1787941216 36.67° C 36% 1015.6 hPa 0 mm - 785 W/m² -
1787940914 36.67° C 35% 1015.7 hPa 0 mm - 779 W/m² -
1787940609 37.78° C 36% 1015.7 hPa 0 mm - 768 W/m² -
1787940303 36.67° C 36% 1015.6 hPa 0 mm - 721 W/m² -
1787940002 36.67° C 36% 1015.7 hPa 0 mm - 761 W/m² -
1787939701 35.56° C 38% 1015.7 hPa 0 mm - 752 W/m² -
1787939395 35.56° C 39% 1015.7 hPa 0 mm - 745 W/m² -

* Rain latest hour (hover to see other rain measurements)
** Current wind speed in m/s (hover to see current wind gust speed)